Time;durP1;ratioP1;P1;durP2;ratioP2;P2;SDS_P1;SDS_P2;PMS_P1;PMS_P2;Temp;Humidity;BMP_temperature;BMP_pressure;BME280_temperature;BME280_humidity;BME280_pressure;Samples;Min_cycle;Max_cycle;Signal;HPM_P1;HPM_P2
2023/03/27 00:01:51;;;;;;;;;;;4.30;99.90;;;;;;5056071;28;19960;-74
2023/03/27 00:04:18;;;;;;;;;;;4.20;99.90;;;;;;5037553;28;20307;-74
2023/03/27 00:06:44;;;;;;;;;;;4.30;99.90;;;;;;5037696;28;20291;-74
2023/03/27 00:09:10;;;;;;;;;;;4.40;99.90;;;;;;5055556;28;19987;-74
2023/03/27 00:11:35;;;;;;;;;;;4.40;99.90;;;;;;5037583;28;20003;-74
2023/03/27 00:14:01;;;;;;;;;;;4.30;99.90;;;;;;5037554;28;20283;-74
2023/03/27 00:16:26;;;;;;;;;;;4.40;99.90;;;;;;5037544;28;19912;-74
2023/03/27 00:18:53;;;;;;;;;;;4.40;99.90;;;;;;5055304;28;20378;-74
2023/03/27 00:21:19;;;;;;;;;;;4.40;99.90;;;;;;5055468;28;20383;-74
2023/03/27 00:23:45;;;;;;;;;;;4.40;99.90;;;;;;5037332;28;20087;-74
2023/03/27 00:26:11;;;;;;;;;;;4.30;99.90;;;;;;5055197;28;19912;-74
2023/03/27 00:28:37;;;;;;;;;;;4.40;99.90;;;;;;5055123;28;19905;-74
2023/03/27 00:31:02;;;;;;;;;;;4.40;99.90;;;;;;5055205;28;20367;-74
2023/03/27 00:33:28;;;;;;;;;;;5.30;99.90;;;;;;5037235;28;19955;-74
2023/03/27 00:35:53;;;;;;;;;;;4.40;99.90;;;;;;5054981;28;19905;-74
2023/03/27 00:38:19;;;;;;;;;;;4.40;99.90;;;;;;5055046;28;19908;-74
2023/03/27 00:40:45;;;;;;;;;;;4.40;99.90;;;;;;5036942;28;19913;-74
2023/03/27 00:43:34;;;;;;;;;;;4.40;99.90;;;;;;5054775;28;20356;-74
2023/03/27 00:46:24;;;;;;;;;;;4.40;99.90;;;;;;5037252;28;20012;-75
2023/03/27 00:48:50;;;;;;;;;;;4.30;99.90;;;;;;5054814;28;20015;-74
2023/03/27 00:51:16;;;;;;;;;;;4.50;99.90;;;;;;5036913;28;19905;-74
2023/03/27 00:53:42;;;;;;;;;;;4.20;99.90;;;;;;5054604;28;19995;-74
2023/03/27 00:56:09;;;;;;;;;;;4.10;99.90;;;;;;5054457;28;19905;-74
2023/03/27 00:58:46;;;;;;;;;;;4.10;99.90;;;;;;5054624;28;19958;-73
2023/03/27 01:01:12;;;;;;;;;;;4.10;99.90;;;;;;5054802;28;19908;-75
2023/03/27 01:03:40;;;;;;;;;;;4.00;99.90;;;;;;5036659;28;19909;-75
2023/03/27 01:06:05;;;;;;;;;;;4.00;99.90;;;;;;5036295;28;19913;-75
2023/03/27 01:08:32;;;;;;;;;;;4.00;99.90;;;;;;5037479;28;19926;-75
2023/03/27 01:11:08;;;;;;;;;;;4.00;99.90;;;;;;5036399;28;20280;-75
2023/03/27 01:13:34;;;;;;;;;;;4.00;99.90;;;;;;5055047;28;19905;-75
2023/03/27 01:16:04;;;;;;;;;;;4.00;99.90;;;;;;5054174;28;19912;-73
2023/03/27 01:18:36;;;;;;;;;;;4.00;99.90;;;;;;5054885;28;19905;-74
2023/03/27 01:21:08;;;;;;;;;;;4.10;99.90;;;;;;5054067;28;19909;-74
2023/03/27 01:23:52;;;;;;;;;;;4.10;99.90;;;;;;5036368;28;20001;-74
2023/03/27 01:26:18;;;;;;;;;;;4.00;99.90;;;;;;5036229;28;19905;-74
2023/03/27 01:28:56;;;;;;;;;;;4.10;99.90;;;;;;5054588;28;19954;-74
2023/03/27 01:31:42;;;;;;;;;;;4.10;99.90;;;;;;5036246;28;20007;-73
2023/03/27 01:34:26;;;;;;;;;;;4.10;99.90;;;;;;5054706;28;19905;-74
2023/03/27 01:37:11;;;;;;;;;;;4.10;99.90;;;;;;5035902;28;19905;-74
2023/03/27 01:39:46;;;;;;;;;;;4.10;99.90;;;;;;5036137;28;19905;-75
2023/03/27 01:42:32;;;;;;;;;;;4.10;99.90;;;;;;5054269;28;19908;-74
2023/03/27 01:45:03;;;;;;;;;;;4.10;99.90;;;;;;5046348;28;19948;-74
2023/03/27 01:47:28;;;;;;;;;;;4.10;99.90;;;;;;5035924;28;19911;-74
2023/03/27 01:49:56;;;;;;;;;;;4.00;99.90;;;;;;5036033;28;19909;-74
2023/03/27 01:52:26;;;;;;;;;;;4.00;99.90;;;;;;5035727;28;20268;-74
2023/03/27 01:54:57;;;;;;;;;;;3.90;99.90;;;;;;5035793;28;19905;-74
2023/03/27 01:57:33;;;;;;;;;;;3.90;99.90;;;;;;5035762;28;19912;-74
2023/03/27 02:00:04;;;;;;;;;;;3.90;99.90;;;;;;5053637;28;20426;-74
2023/03/27 02:02:31;;;;;;;;;;;3.80;99.90;;;;;;5054141;28;20046;-74
2023/03/27 02:05:23;;;;;;;;;;;3.80;99.90;;;;;;5053649;28;19913;-74
2023/03/27 02:07:52;;;;;;;;;;;3.80;99.90;;;;;;5051387;28;19909;-74
2023/03/27 02:10:21;;;;;;;;;;;3.80;99.90;;;;;;5054192;28;20354;-74
2023/03/27 02:12:49;;;;;;;;;;;3.70;99.90;;;;;;5053452;28;19912;-74
2023/03/27 02:15:17;;;;;;;;;;;3.60;99.90;;;;;;5035704;28;19979;-74
2023/03/27 02:17:46;;;;;;;;;;;3.50;99.90;;;;;;5053291;28;19959;-73
2023/03/27 02:20:16;;;;;;;;;;;3.50;99.90;;;;;;5055969;28;19912;-74
2023/03/27 02:22:44;;;;;;;;;;;3.40;99.90;;;;;;5057426;28;19995;-74
2023/03/27 02:25:21;;;;;;;;;;;3.80;99.90;;;;;;5057598;28;20375;-74
2023/03/27 02:27:47;;;;;;;;;;;3.30;99.90;;;;;;5057512;28;19994;-74
2023/03/27 02:30:12;;;;;;;;;;;3.20;99.90;;;;;;5039583;28;19905;-74
2023/03/27 02:32:38;;;;;;;;;;;3.00;99.90;;;;;;5057423;28;20320;-74
2023/03/27 02:35:29;;;;;;;;;;;3.10;99.90;;;;;;5057340;28;19904;-74
2023/03/27 02:37:55;;;;;;;;;;;3.00;99.90;;;;;;5041292;28;20432;-74
2023/03/27 02:40:32;;;;;;;;;;;2.80;99.90;;;;;;5039222;28;19905;-74
2023/03/27 02:42:58;;;;;;;;;;;2.70;99.90;;;;;;5057530;28;19904;-74
2023/03/27 02:45:26;;;;;;;;;;;2.70;99.90;;;;;;5039254;28;19954;-74
2023/03/27 02:47:55;;;;;;;;;;;2.60;99.90;;;;;;5057238;28;19904;-74
2023/03/27 02:50:24;;;;;;;;;;;2.60;99.90;;;;;;5039327;28;19905;-74
2023/03/27 02:52:58;;;;;;;;;;;2.60;99.90;;;;;;5039078;28;19905;-73
2023/03/27 02:55:39;;;;;;;;;;;2.60;99.90;;;;;;5056877;28;19943;-74
2023/03/27 02:58:06;;;;;;;;;;;2.50;99.90;;;;;;5038980;28;19905;-74
2023/03/27 03:00:36;;;;;;;;;;;2.50;99.90;;;;;;5056813;28;20397;-75
2023/03/27 03:03:11;;;;;;;;;;;3.00;99.90;;;;;;5038826;28;19905;-75
2023/03/27 03:05:37;;;;;;;;;;;2.50;99.90;;;;;;5056479;28;20445;-73
2023/03/27 03:08:03;;;;;;;;;;;2.40;99.90;;;;;;5056718;28;19905;-75
2023/03/27 03:10:29;;;;;;;;;;;2.40;99.90;;;;;;5056626;28;19905;-75
2023/03/27 03:12:54;;;;;;;;;;;2.40;99.90;;;;;;5039413;28;19996;-75
2023/03/27 03:15:20;;;;;;;;;;;2.30;99.90;;;;;;5038690;28;19912;-75
2023/03/27 03:17:45;;;;;;;;;;;2.20;99.90;;;;;;5038812;28;19904;-75
2023/03/27 03:20:11;;;;;;;;;;;2.20;99.90;;;;;;5056623;28;20283;-75
2023/03/27 03:22:38;;;;;;;;;;;2.20;99.90;;;;;;5039738;28;19916;-75
2023/03/27 03:25:09;;;;;;;;;;;2.20;99.90;;;;;;5038476;28;19905;-75
2023/03/27 03:27:35;;;;;;;;;;;2.10;99.90;;;;;;5056306;28;19951;-75
2023/03/27 03:30:01;;;;;;;;;;;2.10;99.90;;;;;;5056411;28;19905;-75
2023/03/27 03:32:26;;;;;;;;;;;2.10;99.90;;;;;;5038382;28;19905;-74
2023/03/27 03:34:52;;;;;;;;;;;2.10;99.90;;;;;;5039019;28;19954;-75
2023/03/27 03:37:18;;;;;;;;;;;2.00;99.90;;;;;;5038245;28;20343;-74
2023/03/27 03:39:44;;;;;;;;;;;2.00;99.90;;;;;;5038239;28;19927;-74
2023/03/27 03:42:10;;;;;;;;;;;1.80;99.90;;;;;;5038185;28;19908;-74
2023/03/27 03:44:36;;;;;;;;;;;2.00;99.90;;;;;;5038384;28;19954;-74
2023/03/27 03:47:01;;;;;;;;;;;2.00;99.90;;;;;;5038200;28;19905;-74
2023/03/27 03:49:27;;;;;;;;;;;2.00;99.90;;;;;;5038019;28;19905;-73
2023/03/27 03:51:52;;;;;;;;;;;2.00;99.90;;;;;;5038057;28;19904;-73
2023/03/27 03:54:18;;;;;;;;;;;1.90;99.90;;;;;;5055867;28;20393;-74
2023/03/27 03:56:43;;;;;;;;;;;1.90;99.90;;;;;;5055785;28;19949;-73
2023/03/27 03:59:10;;;;;;;;;;;1.90;99.90;;;;;;5037823;28;19905;-73
2023/03/27 04:01:36;;;;;;;;;;;2.00;99.90;;;;;;5037774;28;19909;-74
2023/03/27 04:04:02;;;;;;;;;;;1.90;99.90;;;;;;5055597;28;19911;-74
2023/03/27 04:06:29;;;;;;;;;;;1.90;99.90;;;;;;5037696;28;20473;-74
2023/03/27 04:08:55;;;;;;;;;;;1.90;99.90;;;;;;5055610;28;19916;-74
2023/03/27 04:11:21;;;;;;;;;;;1.90;99.90;;;;;;5037674;28;20319;-74
2023/03/27 04:13:46;;;;;;;;;;;1.90;99.90;;;;;;5055469;28;19905;-74
2023/03/27 04:16:12;;;;;;;;;;;1.90;99.90;;;;;;5055387;28;19912;-74
2023/03/27 04:18:39;;;;;;;;;;;1.90;99.90;;;;;;5037809;28;20414;-74
2023/03/27 04:21:05;;;;;;;;;;;1.90;99.90;;;;;;5055203;28;19913;-74
2023/03/27 04:23:31;;;;;;;;;;;1.90;99.90;;;;;;5055803;28;20268;-74
2023/03/27 04:26:00;;;;;;;;;;;1.90;99.90;;;;;;5055443;28;19905;-74
2023/03/27 04:28:26;;;;;;;;;;;1.90;99.90;;;;;;5055211;28;19911;-74
2023/03/27 04:30:52;;;;;;;;;;;1.80;99.90;;;;;;5037225;28;19908;-74
2023/03/27 04:33:17;;;;;;;;;;;1.90;99.90;;;;;;5037151;28;20005;-74
2023/03/27 04:35:44;;;;;;;;;;;2.00;99.90;;;;;;5037095;28;19904;-74
2023/03/27 04:38:09;;;;;;;;;;;2.00;99.90;;;;;;5037211;28;20012;-74
2023/03/27 04:40:37;;;;;;;;;;;2.00;99.90;;;;;;5054910;28;19940;-74
2023/03/27 04:43:02;;;;;;;;;;;2.10;99.90;;;;;;5054943;28;20407;-74
2023/03/27 04:45:28;;;;;;;;;;;2.10;99.90;;;;;;5054831;28;19944;-74
2023/03/27 04:47:53;;;;;;;;;;;2.20;99.90;;;;;;5054841;28;19905;-74
2023/03/27 04:50:19;;;;;;;;;;;2.40;99.90;;;;;;5054769;28;19905;-75
2023/03/27 04:52:46;;;;;;;;;;;2.50;99.90;;;;;;5054804;28;19956;-74
2023/03/27 04:55:12;;;;;;;;;;;3.70;99.90;;;;;;5054700;28;19987;-73
2023/03/27 04:57:38;;;;;;;;;;;2.60;99.90;;;;;;5054569;28;20339;-73
2023/03/27 05:00:18;;;;;;;;;;;2.60;99.90;;;;;;5036659;28;19904;-74
2023/03/27 05:02:47;;;;;;;;;;;2.70;99.90;;;;;;5036586;28;19912;-74
2023/03/27 05:05:13;;;;;;;;;;;2.70;99.90;;;;;;5054640;28;19919;-74
2023/03/27 05:07:38;;;;;;;;;;;2.70;99.90;;;;;;5054362;28;19909;-74
2023/03/27 05:10:05;;;;;;;;;;;2.60;99.90;;;;;;5054279;28;19954;-74
2023/03/27 05:12:31;;;;;;;;;;;2.60;99.90;;;;;;5054447;28;20356;-74
2023/03/27 05:14:58;;;;;;;;;;;2.50;99.90;;;;;;5054345;28;19912;-74
2023/03/27 05:17:24;;;;;;;;;;;2.40;99.90;;;;;;5054142;28;19974;-74
2023/03/27 05:19:50;;;;;;;;;;;2.40;99.90;;;;;;5036472;28;19952;-74
2023/03/27 05:22:15;;;;;;;;;;;2.30;99.90;;;;;;5054028;28;19999;-74
2023/03/27 05:24:41;;;;;;;;;;;2.30;99.90;;;;;;5054534;28;19905;-74
2023/03/27 05:27:07;;;;;;;;;;;2.30;99.90;;;;;;5036315;28;19905;-74
2023/03/27 05:29:33;;;;;;;;;;;2.30;99.90;;;;;;5054271;28;19999;-74
2023/03/27 05:31:59;;;;;;;;;;;2.20;99.90;;;;;;5036410;28;19904;-73
2023/03/27 05:34:25;;;;;;;;;;;2.20;99.90;;;;;;5053908;28;19962;-75
2023/03/27 05:36:51;;;;;;;;;;;2.30;99.90;;;;;;5036165;28;19911;-75
2023/03/27 05:39:17;;;;;;;;;;;2.30;99.90;;;;;;5053943;28;19998;-75
2023/03/27 05:41:43;;;;;;;;;;;2.20;99.90;;;;;;5053797;28;19920;-75
2023/03/27 05:44:09;;;;;;;;;;;2.20;99.90;;;;;;5036108;28;20287;-75
2023/03/27 05:46:35;;;;;;;;;;;2.20;99.90;;;;;;5053806;28;19908;-75
2023/03/27 05:49:01;;;;;;;;;;;2.20;99.90;;;;;;5035961;28;19905;-74
2023/03/27 05:51:28;;;;;;;;;;;2.10;99.90;;;;;;5037096;28;20271;-74
2023/03/27 05:53:53;;;;;;;;;;;2.10;99.90;;;;;;5053447;28;19912;-74
2023/03/27 05:56:19;;;;;;;;;;;2.10;99.90;;;;;;5035391;28;19904;-74
2023/03/27 05:58:44;;;;;;;;;;;2.10;99.90;;;;;;5035826;28;19959;-74
2023/03/27 06:01:10;;;;;;;;;;;2.20;99.90;;;;;;5054337;28;19909;-74
2023/03/27 06:03:37;;;;;;;;;;;2.20;99.90;;;;;;5053840;28;19947;-75
2023/03/27 06:06:07;;;;;;;;;;;2.20;99.90;;;;;;5035693;28;19913;-75
2023/03/27 06:08:33;;;;;;;;;;;2.30;99.90;;;;;;5035782;28;19991;-74
2023/03/27 06:10:59;;;;;;;;;;;2.40;99.90;;;;;;5035792;28;19904;-75
2023/03/27 06:13:24;;;;;;;;;;;2.50;99.90;;;;;;5053544;28;20307;-74
2023/03/27 06:15:51;;;;;;;;;;;2.50;99.90;;;;;;5035723;28;19958;-75
2023/03/27 06:18:17;;;;;;;;;;;2.50;99.90;;;;;;5053556;28;19962;-75
2023/03/27 06:20:43;;;;;;;;;;;2.60;99.90;;;;;;5035695;28;20363;-74
2023/03/27 06:23:08;;;;;;;;;;;2.60;99.90;;;;;;5053682;28;19905;-74
2023/03/27 06:25:35;;;;;;;;;;;2.80;99.90;;;;;;5053703;28;19908;-77
2023/03/27 06:28:03;;;;;;;;;;;2.70;99.90;;;;;;5036202;28;19943;-77
2023/03/27 06:30:29;;;;;;;;;;;2.90;99.90;;;;;;5036320;28;19912;-76
2023/03/27 06:32:59;;;;;;;;;;;3.10;99.90;;;;;;5035964;28;19909;-77
2023/03/27 06:35:26;;;;;;;;;;;3.30;99.90;;;;;;5036051;28;19908;-76
2023/03/27 06:37:51;;;;;;;;;;;3.50;99.90;;;;;;5053895;28;20299;-76
2023/03/27 06:40:21;;;;;;;;;;;3.80;99.90;;;;;;5036161;28;19911;-77
2023/03/27 06:42:47;;;;;;;;;;;4.10;99.90;;;;;;5035932;28;19915;-77
2023/03/27 06:45:13;;;;;;;;;;;4.30;99.90;;;;;;5054203;28;19905;-76
2023/03/27 06:47:38;;;;;;;;;;;4.50;99.90;;;;;;5036468;28;20469;-77
2023/03/27 06:50:04;;;;;;;;;;;4.50;99.90;;;;;;5053896;28;19909;-76
2023/03/27 06:52:30;;;;;;;;;;;4.40;99.90;;;;;;5054636;28;20347;-76
2023/03/27 06:54:55;;;;;;;;;;;4.30;99.90;;;;;;5054136;28;19940;-77
2023/03/27 06:57:21;;;;;;;;;;;4.30;99.90;;;;;;5053800;28;19927;-75
2023/03/27 06:59:47;;;;;;;;;;;4.20;99.90;;;;;;5054461;28;19958;-76
2023/03/27 07:02:13;;;;;;;;;;;4.20;99.90;;;;;;5035744;28;20006;-76
2023/03/27 07:04:39;;;;;;;;;;;4.30;99.90;;;;;;5053736;28;20342;-77
2023/03/27 07:07:04;;;;;;;;;;;4.30;99.90;;;;;;5038755;28;19904;-77
2023/03/27 07:09:30;;;;;;;;;;;4.40;99.90;;;;;;5039186;28;19905;-77
2023/03/27 07:11:55;;;;;;;;;;;4.40;99.90;;;;;;5039257;28;19909;-77
2023/03/27 07:14:21;;;;;;;;;;;4.50;99.90;;;;;;5057272;28;19948;-77
2023/03/27 07:16:46;;;;;;;;;;;4.70;99.90;;;;;;5039077;28;20004;-77
2023/03/27 07:19:12;;;;;;;;;;;4.80;99.90;;;;;;5038966;28;19905;-77
2023/03/27 07:21:38;;;;;;;;;;;4.90;99.90;;;;;;5039237;28;19921;-76
2023/03/27 07:24:04;;;;;;;;;;;5.00;99.90;;;;;;5057284;28;19934;-76
2023/03/27 07:26:30;;;;;;;;;;;5.10;99.90;;;;;;5039154;28;19905;-76
2023/03/27 07:28:56;;;;;;;;;;;5.10;99.90;;;;;;5039599;28;20423;-76
2023/03/27 07:31:21;;;;;;;;;;;5.00;99.90;;;;;;5038991;28;19944;-76
2023/03/27 07:33:47;;;;;;;;;;;5.10;99.90;;;;;;5057194;28;20324;-75
2023/03/27 07:36:13;;;;;;;;;;;5.10;99.90;;;;;;5056682;28;19943;-75
2023/03/27 07:38:39;;;;;;;;;;;5.30;99.90;;;;;;5039036;28;19911;-76
2023/03/27 07:41:05;;;;;;;;;;;5.50;99.90;;;;;;5038550;28;19912;-75
2023/03/27 07:43:32;;;;;;;;;;;5.70;99.90;;;;;;5038831;28;20298;-75
2023/03/27 07:45:57;;;;;;;;;;;5.80;99.90;;;;;;5039059;28;19905;-75
2023/03/27 07:48:23;;;;;;;;;;;6.00;99.90;;;;;;5057232;28;19911;-74
2023/03/27 07:50:48;;;;;;;;;;;6.10;99.90;;;;;;5056208;28;19931;-74
2023/03/27 07:53:14;;;;;;;;;;;6.20;99.90;;;;;;5055942;28;20291;-74
2023/03/27 07:55:40;;;;;;;;;;;6.20;99.90;;;;;;5038044;28;19905;-75
2023/03/27 07:58:06;;;;;;;;;;;6.40;99.90;;;;;;5037932;28;19905;-75
2023/03/27 08:00:34;;;;;;;;;;;6.40;99.90;;;;;;5038348;28;19904;-76
2023/03/27 08:03:06;;;;;;;;;;;6.50;99.90;;;;;;5039311;28;19909;-76
2023/03/27 08:05:32;;;;;;;;;;;6.70;99.90;;;;;;5037834;28;19961;-76
2023/03/27 08:07:58;;;;;;;;;;;6.80;99.90;;;;;;5037783;28;20329;-76
2023/03/27 08:10:24;;;;;;;;;;;7.00;99.90;;;;;;5038021;28;20012;-76
2023/03/27 08:12:50;;;;;;;;;;;6.60;99.90;;;;;;5055776;28;19991;-75
2023/03/27 08:15:16;;;;;;;;;;;6.80;99.90;;;;;;5055866;28;19954;-75
2023/03/27 08:17:41;;;;;;;;;;;6.60;99.90;;;;;;5036835;28;19959;-76
2023/03/27 08:20:16;;;;;;;;;;;6.60;99.90;;;;;;5037999;28;19912;-76
2023/03/27 08:22:42;;;;;;;;;;;6.50;99.90;;;;;;5056037;28;20363;-76
2023/03/27 08:25:09;;;;;;;;;;;6.10;99.90;;;;;;5056028;28;19912;-75
2023/03/27 08:27:34;;;;;;;;;;;6.60;99.90;;;;;;5055578;28;19912;-76
2023/03/27 08:30:00;;;;;;;;;;;6.70;99.90;;;;;;5055507;28;19905;-76
2023/03/27 08:32:26;;;;;;;;;;;6.60;99.90;;;;;;5037767;28;19905;-76
2023/03/27 08:34:52;;;;;;;;;;;6.60;99.90;;;;;;5037393;28;19908;-76
2023/03/27 08:37:18;;;;;;;;;;;6.40;99.90;;;;;;5055322;28;19905;-74
2023/03/27 08:39:45;;;;;;;;;;;6.50;99.90;;;;;;5055347;28;19905;-75
2023/03/27 08:42:21;;;;;;;;;;;6.50;99.90;;;;;;5037610;28;19944;-75
2023/03/27 08:44:51;;;;;;;;;;;6.50;99.90;;;;;;5055383;28;19904;-75
2023/03/27 08:47:30;;;;;;;;;;;6.50;99.90;;;;;;5037453;28;19912;-75
2023/03/27 08:49:57;;;;;;;;;;;6.50;99.90;;;;;;5037550;28;19943;-75
2023/03/27 08:52:24;;;;;;;;;;;6.60;99.90;;;;;;5037344;28;19904;-75
2023/03/27 08:54:52;;;;;;;;;;;6.60;99.90;;;;;;5037294;28;19905;-75
2023/03/27 08:57:19;;;;;;;;;;;6.60;99.90;;;;;;5055196;28;20322;-74
2023/03/27 08:59:46;;;;;;;;;;;6.50;99.90;;;;;;5037086;28;19909;-76
2023/03/27 09:02:22;;;;;;;;;;;6.60;99.90;;;;;;5054907;28;19909;-74
2023/03/27 09:04:52;;;;;;;;;;;6.60;99.90;;;;;;5055228;28;20003;-78
2023/03/27 09:07:20;;;;;;;;;;;6.70;99.90;;;;;;5036904;28;19999;-79
2023/03/27 09:10:04;;;;;;;;;;;6.90;99.90;;;;;;5054849;28;19936;-76
2023/03/27 09:12:35;;;;;;;;;;;6.90;99.90;;;;;;5054987;28;19911;-77
2023/03/27 09:15:12;;;;;;;;;;;7.00;99.90;;;;;;5037038;28;20323;-76
2023/03/27 09:17:40;;;;;;;;;;;7.10;99.90;;;;;;5036918;28;19995;-76
2023/03/27 09:20:09;;;;;;;;;;;7.30;99.90;;;;;;5054768;28;20302;-76
2023/03/27 09:22:46;;;;;;;;;;;7.50;99.90;;;;;;5036683;28;20307;-77
2023/03/27 09:25:18;;;;;;;;;;;7.70;99.90;;;;;;5036770;28;19905;-76
2023/03/27 09:27:47;;;;;;;;;;;7.40;99.90;;;;;;5036660;28;19926;-76
2023/03/27 09:30:18;;;;;;;;;;;6.60;99.90;;;;;;5055045;28;20007;-76
2023/03/27 09:32:45;;;;;;;;;;;6.40;99.90;;;;;;5036598;28;19904;-76
2023/03/27 09:35:16;;;;;;;;;;;6.00;99.90;;;;;;5036657;28;20413;-76
2023/03/27 09:37:42;;;;;;;;;;;5.70;99.90;;;;;;5036838;28;19917;-77
2023/03/27 09:40:17;;;;;;;;;;;5.30;99.90;;;;;;5054473;28;20007;-76
2023/03/27 09:42:44;;;;;;;;;;;5.00;99.90;;;;;;5036564;28;20003;-77
2023/03/27 09:45:11;;;;;;;;;;;4.70;99.90;;;;;;5054094;28;19950;-77
2023/03/27 09:47:39;;;;;;;;;;;5.20;99.90;;;;;;5036280;28;20314;-77
2023/03/27 09:50:19;;;;;;;;;;;4.40;99.90;;;;;;5036188;28;20379;-76
2023/03/27 09:52:45;;;;;;;;;;;4.40;99.90;;;;;;5036190;28;19909;-76
2023/03/27 09:55:23;;;;;;;;;;;4.20;99.90;;;;;;5054025;28;19930;-77
2023/03/27 09:57:50;;;;;;;;;;;4.30;99.90;;;;;;5054079;28;19955;-76
2023/03/27 10:00:32;;;;;;;;;;;4.50;99.90;;;;;;5053891;28;19913;-77
2023/03/27 10:02:59;;;;;;;;;;;4.70;99.90;;;;;;5053899;28;19947;-77
2023/03/27 10:05:24;;;;;;;;;;;5.00;99.90;;;;;;5035981;28;20360;-77
2023/03/27 10:07:50;;;;;;;;;;;5.30;99.90;;;;;;5036132;28;19912;-77
2023/03/27 10:10:19;;;;;;;;;;;5.60;99.90;;;;;;5035919;28;19958;-77
2023/03/27 10:12:54;;;;;;;;;;;5.90;99.90;;;;;;5053877;28;19912;-77
2023/03/27 10:15:37;;;;;;;;;;;6.10;99.90;;;;;;5035930;28;19905;-76
2023/03/27 10:18:23;;;;;;;;;;;6.30;99.90;;;;;;5036253;28;19988;-76
2023/03/27 10:20:50;;;;;;;;;;;6.60;99.90;;;;;;5053199;28;19998;-77
2023/03/27 10:23:24;;;;;;;;;;;6.90;99.90;;;;;;5036070;28;20383;-77
2023/03/27 10:25:51;;;;;;;;;;;7.20;99.90;;;;;;5053877;28;19912;-76
2023/03/27 10:28:16;;;;;;;;;;;7.40;99.90;;;;;;5053831;28;19978;-77
2023/03/27 10:30:42;;;;;;;;;;;7.70;99.90;;;;;;5036032;28;19975;-77
2023/03/27 10:33:08;;;;;;;;;;;8.00;99.90;;;;;;5036008;28;19905;-76
2023/03/27 10:35:35;;;;;;;;;;;8.20;99.90;;;;;;5054245;28;19931;-76
2023/03/27 10:38:01;;;;;;;;;;;8.60;99.90;;;;;;5036016;28;19904;-77
2023/03/27 10:40:29;;;;;;;;;;;8.80;99.90;;;;;;5036122;28;19912;-77
2023/03/27 10:42:56;;;;;;;;;;;8.70;99.90;;;;;;5057377;28;19913;-77
2023/03/27 10:45:22;;;;;;;;;;;8.50;99.90;;;;;;5057657;28;19958;-77
2023/03/27 10:47:55;;;;;;;;;;;9.20;99.90;;;;;;5057570;28;19905;-77
2023/03/27 10:50:31;;;;;;;;;;;8.20;99.90;;;;;;5039776;28;19987;-77
2023/03/27 10:52:56;;;;;;;;;;;8.00;99.90;;;;;;5039582;28;20375;-76
2023/03/27 10:55:28;;;;;;;;;;;8.20;99.90;;;;;;5039801;28;19904;-77
2023/03/27 10:57:56;;;;;;;;;;;8.40;99.90;;;;;;5057453;28;19953;-76
2023/03/27 11:00:42;;;;;;;;;;;8.40;99.90;;;;;;5039787;28;19944;-76
2023/03/27 11:03:15;;;;;;;;;;;8.20;99.90;;;;;;5039632;28;19908;-76
2023/03/27 11:05:42;;;;;;;;;;;8.40;99.90;;;;;;5039299;28;20298;-76
2023/03/27 11:08:14;;;;;;;;;;;8.50;99.90;;;;;;5057394;28;20364;-75
2023/03/27 11:10:44;;;;;;;;;;;8.30;99.90;;;;;;5057398;28;20013;-76
2023/03/27 11:13:16;;;;;;;;;;;8.20;99.90;;;;;;5039310;28;19912;-77
2023/03/27 11:15:52;;;;;;;;;;;8.10;99.90;;;;;;5039090;28;20292;-77
2023/03/27 11:18:29;;;;;;;;;;;8.20;99.90;;;;;;5039319;28;19944;-77
2023/03/27 11:21:03;;;;;;;;;;;8.10;99.90;;;;;;5057423;28;20371;-77
2023/03/27 11:23:29;;;;;;;;;;;8.20;99.90;;;;;;5039022;28;20291;-77
2023/03/27 11:25:58;;;;;;;;;;;8.20;99.90;;;;;;5038796;28;19983;-77
2023/03/27 11:28:45;;;;;;;;;;;8.70;99.90;;;;;;5038739;28;19904;-77
2023/03/27 11:31:31;;;;;;;;;;;8.70;99.90;;;;;;5057120;28;19904;-77
2023/03/27 11:34:07;;;;;;;;;;;9.10;99.90;;;;;;5038744;28;20286;-76
2023/03/27 11:36:39;;;;;;;;;;;9.20;99.90;;;;;;5056542;28;20276;-77
2023/03/27 11:39:19;;;;;;;;;;;9.40;99.90;;;;;;5056643;28;19927;-76
2023/03/27 11:41:51;;;;;;;;;;;9.40;99.90;;;;;;5038459;28;20295;-77
2023/03/27 11:44:16;;;;;;;;;;;9.50;94.70;;;;;;5038753;28;19905;-77
2023/03/27 11:46:42;;;;;;;;;;;9.50;96.80;;;;;;5056352;28;19908;-76
2023/03/27 11:49:14;;;;;;;;;;;9.50;96.80;;;;;;5056374;28;19905;-77
2023/03/27 11:51:57;;;;;;;;;;;9.80;97.50;;;;;;5038258;28;19905;-76
2023/03/27 11:54:25;;;;;;;;;;;9.90;95.20;;;;;;5038081;28;19985;-77
2023/03/27 11:56:53;;;;;;;;;;;10.00;93.00;;;;;;5038391;28;19927;-77
2023/03/27 11:59:30;;;;;;;;;;;10.10;92.70;;;;;;5056696;28;19905;-77
2023/03/27 12:02:26;;;;;;;;;;;10.20;92.80;;;;;;5038683;28;19908;-77
2023/03/27 12:05:07;;;;;;;;;;;10.40;94.10;;;;;;5038610;28;19912;-77
2023/03/27 12:07:32;;;;;;;;;;;10.50;91.50;;;;;;5056476;28;19904;-77
2023/03/27 12:10:20;;;;;;;;;;;10.50;92.80;;;;;;5056304;28;20017;-77
2023/03/27 12:13:05;;;;;;;;;;;10.60;90.10;;;;;;5057119;28;19908;-77
2023/03/27 12:16:07;;;;;;;;;;;10.90;91.20;;;;;;5038690;28;19912;-77
2023/03/27 12:18:58;;;;;;;;;;;11.20;86.80;;;;;;5014684;28;20361;-75
2023/03/27 12:21:45;;;;;;;;;;;10.60;94.10;;;;;;5037626;28;19909;-76
2023/03/27 12:24:24;;;;;;;;;;;9.80;99.90;;;;;;5037913;28;19904;-76
2023/03/27 12:27:09;;;;;;;;;;;8.40;99.90;;;;;;5039506;28;19912;-76
2023/03/27 12:29:50;;;;;;;;;;;7.40;99.90;;;;;;5038625;28;19908;-76
2023/03/27 12:32:35;;;;;;;;;;;6.80;99.90;;;;;;5037845;28;19904;-76
2023/03/27 12:35:10;;;;;;;;;;;6.60;99.90;;;;;;5056099;28;19959;-75
2023/03/27 12:37:39;;;;;;;;;;;6.90;99.90;;;;;;5055796;28;19908;-76
2023/03/27 12:40:12;;;;;;;;;;;7.30;99.90;;;;;;5037971;28;20289;-77
2023/03/27 12:43:01;;;;;;;;;;;7.70;99.90;;;;;;5038252;28;19909;-76
2023/03/27 12:45:27;;;;;;;;;;;8.00;99.90;;;;;;5019342;28;19904;-76
2023/03/27 12:48:08;;;;;;;;;;;8.20;99.90;;;;;;5055595;28;20300;-76
2023/03/27 12:50:43;;;;;;;;;;;8.50;99.90;;;;;;5038017;28;19905;-76
2023/03/27 12:53:18;;;;;;;;;;;8.80;99.90;;;;;;5056018;28;19950;-76
2023/03/27 12:55:44;;;;;;;;;;;9.10;99.90;;;;;;5037591;28;19927;-77
2023/03/27 12:58:09;;;;;;;;;;;9.30;99.90;;;;;;5055513;28;20110;-76
2023/03/27 13:00:35;;;;;;;;;;;9.50;99.90;;;;;;5055370;28;19916;-76
2023/03/27 13:03:30;;;;;;;;;;;9.70;99.90;;;;;;5037604;28;20372;-75
2023/03/27 13:06:31;;;;;;;;;;;9.90;99.90;;;;;;5046113;28;20283;-75
2023/03/27 13:09:12;;;;;;;;;;;10.20;99.90;;;;;;5013570;28;20324;-76
2023/03/27 13:11:51;;;;;;;;;;;10.20;99.90;;;;;;5033996;28;19918;-76
2023/03/27 13:14:17;;;;;;;;;;;10.10;99.90;;;;;;5055330;28;20007;-76
2023/03/27 13:16:45;;;;;;;;;;;9.50;99.90;;;;;;5037216;28;19959;-76
2023/03/27 13:19:30;;;;;;;;;;;9.10;99.90;;;;;;5037083;28;19905;-76
2023/03/27 13:22:22;;;;;;;;;;;8.90;99.90;;;;;;5037358;28;19908;-76
2023/03/27 13:24:53;;;;;;;;;;;8.80;99.90;;;;;;5039896;28;19905;-78
2023/03/27 13:27:22;;;;;;;;;;;8.80;99.90;;;;;;5037663;28;19913;-77
2023/03/27 13:29:48;;;;;;;;;;;9.00;99.90;;;;;;5055027;28;19905;-77
2023/03/27 13:32:34;;;;;;;;;;;9.50;99.90;;;;;;5054555;28;20295;-77
2023/03/27 13:35:18;;;;;;;;;;;10.00;99.90;;;;;;5037707;28;19905;-76
2023/03/27 13:37:47;;;;;;;;;;;10.40;99.90;;;;;;5037248;28;19927;-76
2023/03/27 13:40:30;;;;;;;;;;;10.10;99.90;;;;;;5054755;28;19905;-75
2023/03/27 13:43:15;;;;;;;;;;;9.80;99.90;;;;;;5054571;28;19909;-76
2023/03/27 13:45:45;;;;;;;;;;;9.70;99.90;;;;;;5055467;28;19905;-77
2023/03/27 13:48:37;;;;;;;;;;;10.40;99.90;;;;;;5054896;28;20011;-77
2023/03/27 13:51:21;;;;;;;;;;;10.40;99.90;;;;;;5038976;28;19947;-76
2023/03/27 13:53:55;;;;;;;;;;;10.40;99.90;;;;;;5036985;28;19905;-77
2023/03/27 13:56:24;;;;;;;;;;;10.60;99.90;;;;;;5036542;28;20363;-76
2023/03/27 13:58:52;;;;;;;;;;;10.70;99.90;;;;;;5036822;28;19905;-77
2023/03/27 14:01:29;;;;;;;;;;;10.70;99.90;;;;;;5036158;28;19923;-77
2023/03/27 14:04:06;;;;;;;;;;;10.50;99.90;;;;;;5054533;28;19931;-77
2023/03/27 14:06:34;;;;;;;;;;;10.20;99.90;;;;;;5036422;28;20359;-78
2023/03/27 14:09:04;;;;;;;;;;;9.70;99.90;;;;;;5036464;28;19912;-77
2023/03/27 14:11:49;;;;;;;;;;;9.20;99.90;;;;;;5036410;28;20287;-76
2023/03/27 14:14:36;;;;;;;;;;;8.60;99.90;;;;;;5054244;28;19970;-77
2023/03/27 14:17:26;;;;;;;;;;;7.90;99.90;;;;;;5039647;28;19943;-77
2023/03/27 14:19:54;;;;;;;;;;;7.40;99.90;;;;;;5059118;28;19904;-76
2023/03/27 14:22:26;;;;;;;;;;;7.20;99.90;;;;;;5058664;28;20415;-77
2023/03/27 14:24:55;;;;;;;;;;;7.30;99.90;;;;;;5041264;28;19950;-77
2023/03/27 14:27:21;;;;;;;;;;;7.70;99.90;;;;;;5040738;28;19911;-77
2023/03/27 14:30:06;;;;;;;;;;;8.40;99.90;;;;;;5040928;28;20275;-76
2023/03/27 14:32:32;;;;;;;;;;;9.40;99.90;;;;;;5040584;28;20316;-77
2023/03/27 14:35:03;;;;;;;;;;;10.30;99.90;;;;;;5058481;28;19993;-78
2023/03/27 14:37:30;;;;;;;;;;;10.80;96.80;;;;;;5040633;28;19904;-78
2023/03/27 14:39:56;;;;;;;;;;;11.70;95.10;;;;;;5058344;28;19944;-77
2023/03/27 14:42:25;;;;;;;;;;;11.60;92.70;;;;;;5058306;28;19986;-77
2023/03/27 14:44:52;;;;;;;;;;;12.00;90.90;;;;;;5040253;28;19905;-77
2023/03/27 14:47:20;;;;;;;;;;;12.10;86.30;;;;;;5040241;28;19905;-77